sensor_id;sensor_type;location;lat;lon;timestamp;noise_LAeq;noise_LA_min;noise_LA_max;noise_LA01;noise_LA95
4048;Laerm;2038;51.728;6.674;2022-11-15T00:00:57;42.53;40.43;43.86;;
4048;Laerm;2038;51.728;6.674;2022-11-15T00:03:26;42.49;40.71;44.15;;
4048;Laerm;2038;51.728;6.674;2022-11-15T00:05:53;42.43;40.23;43.86;;
4048;Laerm;2038;51.728;6.674;2022-11-15T00:08:19;42.42;40.43;43.72;;
4048;Laerm;2038;51.728;6.674;2022-11-15T00:10:57;42.36;40.53;43.90;;
4048;Laerm;2038;51.728;6.674;2022-11-15T00:13:23;42.37;40.23;44.01;;
4048;Laerm;2038;51.728;6.674;2022-11-15T00:15:49;42.34;40.53;44.19;;
4048;Laerm;2038;51.728;6.674;2022-11-15T00:18:17;42.29;40.23;43.60;;
4048;Laerm;2038;51.728;6.674;2022-11-15T00:20:44;42.26;40.23;43.72;;
4048;Laerm;2038;51.728;6.674;2022-11-15T00:23:11;42.24;40.13;43.86;;
4048;Laerm;2038;51.728;6.674;2022-11-15T00:25:37;42.20;40.23;43.77;;
4048;Laerm;2038;51.728;6.674;2022-11-15T00:28:04;42.26;40.23;43.99;;
4048;Laerm;2038;51.728;6.674;2022-11-15T00:30:30;42.92;40.53;52.63;;
4048;Laerm;2038;51.728;6.674;2022-11-15T00:33:01;42.28;40.43;43.72;;
4048;Laerm;2038;51.728;6.674;2022-11-15T00:35:27;42.24;39.81;43.63;;
4048;Laerm;2038;51.728;6.674;2022-11-15T00:37:53;42.26;40.23;43.72;;
4048;Laerm;2038;51.728;6.674;2022-11-15T00:40:19;42.28;40.33;43.81;;
4048;Laerm;2038;51.728;6.674;2022-11-15T00:42:46;42.35;38.81;43.68;;
4048;Laerm;2038;51.728;6.674;2022-11-15T00:45:12;42.43;40.33;43.81;;
4048;Laerm;2038;51.728;6.674;2022-11-15T00:47:38;42.45;40.53;43.90;;
4048;Laerm;2038;51.728;6.674;2022-11-15T00:50:05;42.55;40.80;43.89;;
4048;Laerm;2038;51.728;6.674;2022-11-15T00:52:30;42.62;40.80;44.07;;
4048;Laerm;2038;51.728;6.674;2022-11-15T00:54:56;42.69;40.33;44.11;;
4048;Laerm;2038;51.728;6.674;2022-11-15T00:57:22;42.78;40.89;44.11;;
4048;Laerm;2038;51.728;6.674;2022-11-15T00:59:49;42.90;40.98;44.27;;
4048;Laerm;2038;51.728;6.674;2022-11-15T01:02:15;43.00;41.30;44.31;;
4048;Laerm;2038;51.728;6.674;2022-11-15T01:04:41;43.00;41.22;44.51;;
4048;Laerm;2038;51.728;6.674;2022-11-15T01:07:07;43.04;41.30;44.35;;
4048;Laerm;2038;51.728;6.674;2022-11-15T01:09:33;43.05;41.06;44.43;;
4048;Laerm;2038;51.728;6.674;2022-11-15T01:12:00;44.49;40.89;57.79;;
4048;Laerm;2038;51.728;6.674;2022-11-15T01:14:26;43.11;41.30;44.27;;
4048;Laerm;2038;51.728;6.674;2022-11-15T01:16:52;43.13;41.30;44.43;;
4048;Laerm;2038;51.728;6.674;2022-11-15T01:19:19;43.19;41.22;44.51;;
4048;Laerm;2038;51.728;6.674;2022-11-15T01:21:45;43.24;41.53;44.54;;
4048;Laerm;2038;51.728;6.674;2022-11-15T01:24:14;43.26;41.38;44.51;;
4048;Laerm;2038;51.728;6.674;2022-11-15T01:26:40;43.23;41.68;44.51;;
4048;Laerm;2038;51.728;6.674;2022-11-15T01:29:06;43.21;41.30;44.62;;
4048;Laerm;2038;51.728;6.674;2022-11-15T01:31:32;43.19;41.75;44.51;;
4048;Laerm;2038;51.728;6.674;2022-11-15T01:33:58;43.20;41.61;44.43;;
4048;Laerm;2038;51.728;6.674;2022-11-15T01:36:24;43.16;41.61;44.51;;
4048;Laerm;2038;51.728;6.674;2022-11-15T01:39:02;44.93;41.14;59.10;;
4048;Laerm;2038;51.728;6.674;2022-11-15T01:41:32;43.27;41.38;44.51;;
4048;Laerm;2038;51.728;6.674;2022-11-15T01:46:59;43.37;41.75;44.58;;
4048;Laerm;2038;51.728;6.674;2022-11-15T01:49:31;43.38;41.82;44.58;;
4048;Laerm;2038;51.728;6.674;2022-11-15T01:52:04;43.45;41.82;44.87;;
4048;Laerm;2038;51.728;6.674;2022-11-15T01:54:30;43.47;41.89;44.65;;
4048;Laerm;2038;51.728;6.674;2022-11-15T01:57:07;43.45;41.82;44.73;;
4048;Laerm;2038;51.728;6.674;2022-11-15T01:59:38;43.49;42.03;44.72;;
4048;Laerm;2038;51.728;6.674;2022-11-15T02:02:06;43.45;41.75;44.69;;
4048;Laerm;2038;51.728;6.674;2022-11-15T02:04:41;43.42;41.75;44.69;;
4048;Laerm;2038;51.728;6.674;2022-11-15T02:07:14;43.44;42.09;44.51;;
4048;Laerm;2038;51.728;6.674;2022-11-15T02:09:42;43.45;41.82;44.65;;
4048;Laerm;2038;51.728;6.674;2022-11-15T02:12:16;43.47;41.82;44.65;;
4048;Laerm;2038;51.728;6.674;2022-11-15T02:14:52;43.49;41.22;44.62;;
4048;Laerm;2038;51.728;6.674;2022-11-15T02:18:05;43.52;41.89;44.89;;
4048;Laerm;2038;51.728;6.674;2022-11-15T02:21:22;43.46;41.61;44.69;;
4048;Laerm;2038;51.728;6.674;2022-11-15T02:27:45;43.73;41.89;49.92;;
4048;Laerm;2038;51.728;6.674;2022-11-15T02:30:35;43.69;42.16;44.80;;
4048;Laerm;2038;51.728;6.674;2022-11-15T02:36:18;43.78;42.47;45.01;;
4048;Laerm;2038;51.728;6.674;2022-11-15T02:39:03;43.84;42.29;44.97;;
4048;Laerm;2038;51.728;6.674;2022-11-15T02:42:11;43.97;42.29;48.00;;
4048;Laerm;2038;51.728;6.674;2022-11-15T02:45:04;44.05;42.65;45.27;;
4048;Laerm;2038;51.728;6.674;2022-11-15T02:47:42;44.22;42.93;45.42;;
4048;Laerm;2038;51.728;6.674;2022-11-15T02:50:13;44.24;42.98;45.33;;
4048;Laerm;2038;51.728;6.674;2022-11-15T02:52:44;44.57;42.88;52.60;;
4048;Laerm;2038;51.728;6.674;2022-11-15T02:55:32;44.26;42.98;45.72;;
4048;Laerm;2038;51.728;6.674;2022-11-15T03:04:02;43.90;42.35;45.14;;
4048;Laerm;2038;51.728;6.674;2022-11-15T03:09:51;43.75;42.16;44.90;;
4048;Laerm;2038;51.728;6.674;2022-11-15T03:15:52;44.03;41.75;54.84;;
4048;Laerm;2038;51.728;6.674;2022-11-15T03:18:33;43.50;41.68;44.62;;
4048;Laerm;2038;51.728;6.674;2022-11-15T03:21:07;43.33;41.75;44.47;;
4048;Laerm;2038;51.728;6.674;2022-11-15T03:23:39;43.49;41.68;52.48;;
4048;Laerm;2038;51.728;6.674;2022-11-15T03:26:19;43.20;41.30;44.65;;
4048;Laerm;2038;51.728;6.674;2022-11-15T03:29:08;43.57;41.68;54.23;;
4048;Laerm;2038;51.728;6.674;2022-11-15T03:31:43;43.89;41.61;54.16;;
4048;Laerm;2038;51.728;6.674;2022-11-15T03:34:32;43.14;41.53;44.47;;
4048;Laerm;2038;51.728;6.674;2022-11-15T03:36:59;44.21;41.30;55.08;;
4048;Laerm;2038;51.728;6.674;2022-11-15T03:39:29;43.16;41.38;44.35;;
4048;Laerm;2038;51.728;6.674;2022-11-15T03:42:30;44.05;41.38;53.94;;
4048;Laerm;2038;51.728;6.674;2022-11-15T03:48:02;43.67;41.14;52.91;;
4048;Laerm;2038;51.728;6.674;2022-11-15T03:50:30;43.14;41.38;44.39;;
4048;Laerm;2038;51.728;6.674;2022-11-15T03:53:01;46.92;41.46;61.65;;
4048;Laerm;2038;51.728;6.674;2022-11-15T03:55:28;43.54;41.06;52.41;;
4048;Laerm;2038;51.728;6.674;2022-11-15T03:57:59;43.60;40.71;52.60;;
4048;Laerm;2038;51.728;6.674;2022-11-15T04:00:26;43.09;41.22;44.51;;
4048;Laerm;2038;51.728;6.674;2022-11-15T04:02:53;46.76;41.75;60.21;;
4048;Laerm;2038;51.728;6.674;2022-11-15T04:05:19;46.45;41.53;58.53;;
4048;Laerm;2038;51.728;6.674;2022-11-15T04:07:45;43.31;41.68;44.56;;
4048;Laerm;2038;51.728;6.674;2022-11-15T04:10:12;45.10;42.03;57.69;;
4048;Laerm;2038;51.728;6.674;2022-11-15T04:12:43;45.95;41.82;57.40;;
4048;Laerm;2038;51.728;6.674;2022-11-15T04:15:16;44.90;42.41;55.79;;
4048;Laerm;2038;51.728;6.674;2022-11-15T04:17:49;44.34;42.29;55.44;;
4048;Laerm;2038;51.728;6.674;2022-11-15T04:20:34;45.86;42.16;59.21;;
4048;Laerm;2038;51.728;6.674;2022-11-15T04:23:21;44.00;42.29;45.99;;
4048;Laerm;2038;51.728;6.674;2022-11-15T04:26:17;48.28;42.98;64.16;;
4048;Laerm;2038;51.728;6.674;2022-11-15T04:28:44;45.88;43.19;58.89;;
4048;Laerm;2038;51.728;6.674;2022-11-15T04:31:29;47.83;43.44;62.43;;
4048;Laerm;2038;51.728;6.674;2022-11-15T04:33:55;45.39;43.44;54.68;;
4048;Laerm;2038;51.728;6.674;2022-11-15T04:36:21;46.93;43.90;57.44;;
4048;Laerm;2038;51.728;6.674;2022-11-15T04:39:07;48.03;43.94;64.74;;
4048;Laerm;2038;51.728;6.674;2022-11-15T04:41:33;48.56;43.90;62.95;;
4048;Laerm;2038;51.728;6.674;2022-11-15T04:43:59;45.40;44.03;47.02;;
4048;Laerm;2038;51.728;6.674;2022-11-15T04:46:26;46.94;44.23;60.14;;
4048;Laerm;2038;51.728;6.674;2022-11-15T04:48:53;47.00;44.23;55.89;;
4048;Laerm;2038;51.728;6.674;2022-11-15T04:51:20;46.42;44.39;54.66;;
4048;Laerm;2038;51.728;6.674;2022-11-15T04:53:46;48.46;44.47;59.00;;
4048;Laerm;2038;51.728;6.674;2022-11-15T04:56:12;48.90;44.58;62.10;;
4048;Laerm;2038;51.728;6.674;2022-11-15T04:58:39;46.54;44.51;56.37;;
4048;Laerm;2038;51.728;6.674;2022-11-15T05:01:10;45.77;44.27;47.30;;
4048;Laerm;2038;51.728;6.674;2022-11-15T05:03:38;46.60;44.23;54.07;;
4048;Laerm;2038;51.728;6.674;2022-11-15T05:06:22;46.77;44.47;56.25;;
4048;Laerm;2038;51.728;6.674;2022-11-15T05:08:49;47.57;44.43;56.75;;
4048;Laerm;2038;51.728;6.674;2022-11-15T05:11:15;47.88;44.51;57.08;;
4048;Laerm;2038;51.728;6.674;2022-11-15T05:13:41;47.15;44.58;56.29;;
4048;Laerm;2038;51.728;6.674;2022-11-15T05:16:07;47.12;44.69;55.13;;
4048;Laerm;2038;51.728;6.674;2022-11-15T05:18:34;47.29;44.62;55.66;;
4048;Laerm;2038;51.728;6.674;2022-11-15T05:21:12;48.09;44.51;57.62;;
4048;Laerm;2038;51.728;6.674;2022-11-15T05:23:39;47.71;44.52;56.30;;
4048;Laerm;2038;51.728;6.674;2022-11-15T05:26:07;47.39;44.62;55.40;;
4048;Laerm;2038;51.728;6.674;2022-11-15T05:28:35;47.66;44.80;56.71;;
4048;Laerm;2038;51.728;6.674;2022-11-15T05:31:16;47.63;44.92;57.21;;
4048;Laerm;2038;51.728;6.674;2022-11-15T05:33:44;47.65;44.69;55.93;;
4048;Laerm;2038;51.728;6.674;2022-11-15T05:36:34;48.90;44.97;58.93;;
4048;Laerm;2038;51.728;6.674;2022-11-15T05:39:04;48.18;44.51;64.26;;
4048;Laerm;2038;51.728;6.674;2022-11-15T05:41:44;48.77;44.97;59.93;;
4048;Laerm;2038;51.728;6.674;2022-11-15T05:44:16;48.68;44.76;56.20;;
4048;Laerm;2038;51.728;6.674;2022-11-15T05:46:45;48.49;44.97;58.96;;
4048;Laerm;2038;51.728;6.674;2022-11-15T05:49:17;48.83;44.95;56.99;;
4048;Laerm;2038;51.728;6.674;2022-11-15T05:51:48;47.97;44.83;58.37;;
4048;Laerm;2038;51.728;6.674;2022-11-15T05:54:16;47.55;44.65;55.58;;
4048;Laerm;2038;51.728;6.674;2022-11-15T05:56:43;47.58;45.01;55.66;;
4048;Laerm;2038;51.728;6.674;2022-11-15T05:59:10;48.29;45.07;58.32;;
4048;Laerm;2038;51.728;6.674;2022-11-15T06:01:37;49.17;45.14;58.43;;
4048;Laerm;2038;51.728;6.674;2022-11-15T06:04:04;49.29;44.97;59.14;;
4048;Laerm;2038;51.728;6.674;2022-11-15T06:06:30;48.53;44.87;55.49;;
4048;Laerm;2038;51.728;6.674;2022-11-15T06:08:57;49.10;45.17;59.12;;
4048;Laerm;2038;51.728;6.674;2022-11-15T06:11:23;48.11;44.98;56.57;;
4048;Laerm;2038;51.728;6.674;2022-11-15T06:13:49;47.41;44.87;53.08;;
4048;Laerm;2038;51.728;6.674;2022-11-15T06:16:15;47.90;45.04;55.34;;
4048;Laerm;2038;51.728;6.674;2022-11-15T06:18:42;49.54;44.80;61.38;;
4048;Laerm;2038;51.728;6.674;2022-11-15T06:21:08;47.87;44.69;54.54;;
4048;Laerm;2038;51.728;6.674;2022-11-15T06:23:35;47.29;44.87;53.32;;
4048;Laerm;2038;51.728;6.674;2022-11-15T06:26:02;48.56;44.80;57.48;;
4048;Laerm;2038;51.728;6.674;2022-11-15T06:28:31;47.87;44.90;53.96;;
4048;Laerm;2038;51.728;6.674;2022-11-15T06:31:07;47.42;44.76;53.27;;
4048;Laerm;2038;51.728;6.674;2022-11-15T06:33:34;49.61;45.20;59.14;;
4048;Laerm;2038;51.728;6.674;2022-11-15T06:36:03;48.59;45.11;58.96;;
4048;Laerm;2038;51.728;6.674;2022-11-15T06:38:30;47.91;45.23;55.20;;
4048;Laerm;2038;51.728;6.674;2022-11-15T06:41:05;51.40;44.87;64.14;;
4048;Laerm;2038;51.728;6.674;2022-11-15T06:43:32;48.22;44.54;57.08;;
4048;Laerm;2038;51.728;6.674;2022-11-15T06:46:00;48.76;44.65;58.30;;
4048;Laerm;2038;51.728;6.674;2022-11-15T06:48:28;47.72;44.97;55.00;;
4048;Laerm;2038;51.728;6.674;2022-11-15T06:50:58;48.93;45.11;58.68;;
4048;Laerm;2038;51.728;6.674;2022-11-15T06:53:27;47.54;44.97;55.28;;
4048;Laerm;2038;51.728;6.674;2022-11-15T06:55:53;48.00;45.01;53.99;;
4048;Laerm;2038;51.728;6.674;2022-11-15T06:58:23;48.12;45.27;56.08;;
4048;Laerm;2038;51.728;6.674;2022-11-15T07:00:49;47.37;45.36;52.63;;
4048;Laerm;2038;51.728;6.674;2022-11-15T07:03:15;48.79;45.23;61.12;;
4048;Laerm;2038;51.728;6.674;2022-11-15T07:05:41;49.05;45.20;58.03;;
4048;Laerm;2038;51.728;6.674;2022-11-15T07:08:07;47.80;45.14;53.68;;
4048;Laerm;2038;51.728;6.674;2022-11-15T07:10:33;49.38;45.07;61.40;;
4048;Laerm;2038;51.728;6.674;2022-11-15T07:13:00;49.73;45.11;60.43;;
4048;Laerm;2038;51.728;6.674;2022-11-15T07:15:26;49.29;45.17;69.75;;
4048;Laerm;2038;51.728;6.674;2022-11-15T07:17:52;49.25;44.94;59.53;;
4048;Laerm;2038;51.728;6.674;2022-11-15T07:20:19;49.51;45.11;59.70;;
4048;Laerm;2038;51.728;6.674;2022-11-15T07:22:45;48.65;45.30;58.96;;
4048;Laerm;2038;51.728;6.674;2022-11-15T07:25:12;48.40;45.14;56.83;;
4048;Laerm;2038;51.728;6.674;2022-11-15T07:27:39;48.78;45.33;56.02;;
4048;Laerm;2038;51.728;6.674;2022-11-15T07:30:06;47.64;45.01;57.43;;
4048;Laerm;2038;51.728;6.674;2022-11-15T07:32:32;47.77;45.01;55.70;;
4048;Laerm;2038;51.728;6.674;2022-11-15T07:34:58;48.84;45.07;59.34;;
4048;Laerm;2038;51.728;6.674;2022-11-15T07:37:24;50.80;45.14;64.38;;
4048;Laerm;2038;51.728;6.674;2022-11-15T07:39:51;48.27;45.27;57.60;;
4048;Laerm;2038;51.728;6.674;2022-11-15T07:42:17;49.31;44.87;62.85;;
4048;Laerm;2038;51.728;6.674;2022-11-15T07:45:01;48.14;45.17;55.81;;
4048;Laerm;2038;51.728;6.674;2022-11-15T07:47:28;49.77;45.23;60.69;;
4048;Laerm;2038;51.728;6.674;2022-11-15T07:49:55;47.81;45.27;58.98;;
4048;Laerm;2038;51.728;6.674;2022-11-15T07:52:21;48.82;45.48;57.30;;
4048;Laerm;2038;51.728;6.674;2022-11-15T07:54:47;49.74;45.33;62.68;;
4048;Laerm;2038;51.728;6.674;2022-11-15T07:57:13;47.67;45.20;54.65;;
4048;Laerm;2038;51.728;6.674;2022-11-15T07:59:39;50.05;45.17;63.44;;
4048;Laerm;2038;51.728;6.674;2022-11-15T08:02:05;47.33;44.58;57.09;;
4048;Laerm;2038;51.728;6.674;2022-11-15T08:04:31;47.00;44.62;52.91;;
4048;Laerm;2038;51.728;6.674;2022-11-15T08:06:56;48.26;44.80;57.50;;
4048;Laerm;2038;51.728;6.674;2022-11-15T08:09:22;48.62;44.76;61.17;;
4048;Laerm;2038;51.728;6.674;2022-11-15T08:11:48;47.17;44.80;53.45;;
4048;Laerm;2038;51.728;6.674;2022-11-15T08:14:14;48.71;44.35;59.45;;
4048;Laerm;2038;51.728;6.674;2022-11-15T08:16:40;48.05;44.43;56.31;;
4048;Laerm;2038;51.728;6.674;2022-11-15T08:19:06;48.02;44.15;58.81;;
4048;Laerm;2038;51.728;6.674;2022-11-15T08:21:31;47.25;44.11;60.13;;
4048;Laerm;2038;51.728;6.674;2022-11-15T08:23:57;47.06;44.23;63.11;;
4048;Laerm;2038;51.728;6.674;2022-11-15T08:26:23;49.66;43.94;71.00;;
4048;Laerm;2038;51.728;6.674;2022-11-15T08:28:50;46.26;43.94;56.73;;
4048;Laerm;2038;51.728;6.674;2022-11-15T08:31:18;47.56;43.72;57.69;;
4048;Laerm;2038;51.728;6.674;2022-11-15T08:33:44;47.10;43.77;60.70;;
4048;Laerm;2038;51.728;6.674;2022-11-15T08:36:15;49.44;43.94;62.25;;
4048;Laerm;2038;51.728;6.674;2022-11-15T08:38:43;49.23;43.49;63.09;;
4048;Laerm;2038;51.728;6.674;2022-11-15T08:41:24;47.17;43.04;59.46;;
4048;Laerm;2038;51.728;6.674;2022-11-15T08:43:51;46.18;43.29;56.61;;
4048;Laerm;2038;51.728;6.674;2022-11-15T08:46:18;47.93;43.39;59.44;;
4048;Laerm;2038;51.728;6.674;2022-11-15T08:48:45;49.11;43.24;60.87;;
4048;Laerm;2038;51.728;6.674;2022-11-15T08:51:11;47.18;43.14;59.84;;
4048;Laerm;2038;51.728;6.674;2022-11-15T08:53:37;51.35;43.34;66.16;;
4048;Laerm;2038;51.728;6.674;2022-11-15T08:56:09;49.16;42.82;60.92;;
4048;Laerm;2038;51.728;6.674;2022-11-15T08:58:36;47.51;42.88;56.89;;
4048;Laerm;2038;51.728;6.674;2022-11-15T09:01:04;46.60;42.65;58.85;;
4048;Laerm;2038;51.728;6.674;2022-11-15T09:03:31;49.12;42.76;61.63;;
4048;Laerm;2038;51.728;6.674;2022-11-15T09:06:00;46.11;42.93;57.20;;
4048;Laerm;2038;51.728;6.674;2022-11-15T09:08:31;48.10;42.98;58.96;;
4048;Laerm;2038;51.728;6.674;2022-11-15T09:11:03;46.30;42.76;58.85;;
4048;Laerm;2038;51.728;6.674;2022-11-15T09:13:33;48.30;42.82;64.33;;
4048;Laerm;2038;51.728;6.674;2022-11-15T09:16:00;47.37;42.71;56.96;;
4048;Laerm;2038;51.728;6.674;2022-11-15T09:18:27;52.29;42.88;66.52;;
4048;Laerm;2038;51.728;6.674;2022-11-15T09:21:00;46.05;42.65;55.34;;
4048;Laerm;2038;51.728;6.674;2022-11-15T09:23:27;47.22;42.64;59.40;;
4048;Laerm;2038;51.728;6.674;2022-11-15T09:26:03;49.03;42.16;64.15;;
4048;Laerm;2038;51.728;6.674;2022-11-15T09:28:31;47.90;42.35;61.55;;
4048;Laerm;2038;51.728;6.674;2022-11-15T09:31:01;49.76;42.53;64.05;;
4048;Laerm;2038;51.728;6.674;2022-11-15T09:33:28;51.75;42.88;65.10;;
4048;Laerm;2038;51.728;6.674;2022-11-15T09:36:02;45.53;42.09;55.28;;
4048;Laerm;2038;51.728;6.674;2022-11-15T09:38:30;45.33;42.47;53.54;;
4048;Laerm;2038;51.728;6.674;2022-11-15T09:44:29;46.50;42.47;55.86;;
4048;Laerm;2038;51.728;6.674;2022-11-15T09:49:36;48.24;43.24;59.80;;
4048;Laerm;2038;51.728;6.674;2022-11-15T09:52:03;45.87;42.98;55.57;;
4048;Laerm;2038;51.728;6.674;2022-11-15T09:54:47;50.85;42.41;67.10;;
4048;Laerm;2038;51.728;6.674;2022-11-15T09:57:37;48.68;43.14;60.71;;
4048;Laerm;2038;51.728;6.674;2022-11-15T10:00:23;48.97;43.24;67.38;;
4048;Laerm;2038;51.728;6.674;2022-11-15T10:03:23;52.33;43.24;65.90;;
4048;Laerm;2038;51.728;6.674;2022-11-15T10:05:56;47.10;43.14;62.42;;
4048;Laerm;2038;51.728;6.674;2022-11-15T10:11:19;49.70;43.29;64.29;;
4048;Laerm;2038;51.728;6.674;2022-11-15T10:13:50;46.71;43.29;60.09;;
4048;Laerm;2038;51.728;6.674;2022-11-15T10:19:27;50.05;43.09;70.40;;
4048;Laerm;2038;51.728;6.674;2022-11-15T10:22:38;47.76;43.24;68.08;;
4048;Laerm;2038;51.728;6.674;2022-11-15T10:25:24;46.04;43.33;61.05;;
4048;Laerm;2038;51.728;6.674;2022-11-15T10:28:03;47.50;43.04;60.15;;
4048;Laerm;2038;51.728;6.674;2022-11-15T10:31:00;49.20;43.63;66.30;;
4048;Laerm;2038;51.728;6.674;2022-11-15T10:33:36;45.60;43.29;55.50;;
4048;Laerm;2038;51.728;6.674;2022-11-15T10:36:21;50.59;43.44;66.01;;
4048;Laerm;2038;51.728;6.674;2022-11-15T10:38:51;46.36;42.88;55.89;;
4048;Laerm;2038;51.728;6.674;2022-11-15T10:47:16;44.28;41.89;52.80;;
4048;Laerm;2038;51.728;6.674;2022-11-15T10:49:34;45.37;41.46;57.19;;
4048;Laerm;2038;51.728;6.674;2022-11-15T10:52:17;49.82;41.61;67.12;;
4048;Laerm;2038;51.728;6.674;2022-11-15T10:54:58;45.94;41.53;56.51;;
4048;Laerm;2038;51.728;6.674;2022-11-15T10:57:36;45.92;41.61;55.93;;
4048;Laerm;2038;51.728;6.674;2022-11-15T11:00:32;45.52;41.61;55.69;;
4048;Laerm;2038;51.728;6.674;2022-11-15T11:03:29;50.46;41.75;64.77;;
4048;Laerm;2038;51.728;6.674;2022-11-15T11:06:16;45.20;42.41;56.61;;
4048;Laerm;2038;51.728;6.674;2022-11-15T11:09:05;45.98;42.41;56.15;;
4048;Laerm;2038;51.728;6.674;2022-11-15T11:11:51;45.91;42.35;61.56;;
4048;Laerm;2038;51.728;6.674;2022-11-15T11:14:46;46.00;42.03;56.23;;
4048;Laerm;2038;51.728;6.674;2022-11-15T11:17:41;45.63;41.53;56.40;;
4048;Laerm;2038;51.728;6.674;2022-11-15T11:26:35;45.90;40.53;57.06;;
4048;Laerm;2038;51.728;6.674;2022-11-15T11:29:38;44.77;40.98;54.68;;
4048;Laerm;2038;51.728;6.674;2022-11-15T11:33:19;44.73;41.38;54.73;;
4048;Laerm;2038;51.728;6.674;2022-11-15T11:36:31;46.69;41.38;59.56;;
4048;Laerm;2038;51.728;6.674;2022-11-15T11:43:05;44.50;40.33;56.53;;
4048;Laerm;2038;51.728;6.674;2022-11-15T11:46:09;45.32;40.13;65.37;;
4048;Laerm;2038;51.728;6.674;2022-11-15T11:48:55;48.93;39.46;65.74;;
4048;Laerm;2038;51.728;6.674;2022-11-15T11:51:43;45.68;39.70;60.64;;
4048;Laerm;2038;51.728;6.674;2022-11-15T11:54:43;44.58;38.95;61.69;;
4048;Laerm;2038;51.728;6.674;2022-11-15T11:57:44;44.84;39.58;61.22;;
4048;Laerm;2038;51.728;6.674;2022-11-15T12:00:22;48.35;39.58;69.53;;
4048;Laerm;2038;51.728;6.674;2022-11-15T12:03:14;46.42;38.95;59.51;;
4048;Laerm;2038;51.728;6.674;2022-11-15T12:05:50;48.43;39.35;63.94;;
4048;Laerm;2038;51.728;6.674;2022-11-15T12:11:35;50.40;38.95;66.18;;
4048;Laerm;2038;51.728;6.674;2022-11-15T12:14:24;50.54;38.52;64.29;;
4048;Laerm;2038;51.728;6.674;2022-11-15T12:16:51;47.43;38.21;74.88;;
4048;Laerm;2038;51.728;6.674;2022-11-15T12:19:17;46.62;39.08;59.07;;
4048;Laerm;2038;51.728;6.674;2022-11-15T12:22:01;46.12;39.08;64.60;;
4048;Laerm;2038;51.728;6.674;2022-11-15T12:24:39;50.83;38.67;79.54;;
4048;Laerm;2038;51.728;6.674;2022-11-15T12:27:35;45.53;38.67;60.16;;
4048;Laerm;2038;51.728;6.674;2022-11-15T12:30:17;50.34;38.95;67.87;;
4048;Laerm;2038;51.728;6.674;2022-11-15T12:33:00;50.40;39.08;64.27;;
4048;Laerm;2038;51.728;6.674;2022-11-15T12:35:40;45.59;39.21;56.90;;
4048;Laerm;2038;51.728;6.674;2022-11-15T12:38:12;47.91;39.08;65.93;;
4048;Laerm;2038;51.728;6.674;2022-11-15T12:41:13;45.83;38.81;58.02;;
4048;Laerm;2038;51.728;6.674;2022-11-15T12:43:46;46.43;39.70;58.60;;
4048;Laerm;2038;51.728;6.674;2022-11-15T12:49:01;43.70;38.52;55.09;;
4048;Laerm;2038;51.728;6.674;2022-11-15T12:59:52;55.05;38.95;77.72;;
4048;Laerm;2038;51.728;6.674;2022-11-15T13:17:53;48.11;38.81;64.11;;
4048;Laerm;2038;51.728;6.674;2022-11-15T13:20:29;46.18;39.08;55.04;;
4048;Laerm;2038;51.728;6.674;2022-11-15T13:23:00;48.55;39.46;59.72;;
4048;Laerm;2038;51.728;6.674;2022-11-15T13:28:37;51.50;38.95;64.27;;
4048;Laerm;2038;51.728;6.674;2022-11-15T13:31:40;46.21;38.21;57.33;;
4048;Laerm;2038;51.728;6.674;2022-11-15T13:34:37;44.70;38.37;55.91;;
4048;Laerm;2038;51.728;6.674;2022-11-15T13:37:03;45.41;38.67;57.22;;
4048;Laerm;2038;51.728;6.674;2022-11-15T13:39:34;48.24;39.21;58.34;;
4048;Laerm;2038;51.728;6.674;2022-11-15T13:42:03;49.76;39.21;64.28;;
4048;Laerm;2038;51.728;6.674;2022-11-15T13:44:33;48.77;37.12;62.17;;
4048;Laerm;2038;51.728;6.674;2022-11-15T13:47:14;51.87;38.21;72.17;;
4048;Laerm;2038;51.728;6.674;2022-11-15T13:49:41;49.33;38.52;61.20;;
4048;Laerm;2038;51.728;6.674;2022-11-15T13:52:13;47.63;39.21;61.10;;
4048;Laerm;2038;51.728;6.674;2022-11-15T13:55:02;47.76;39.21;58.95;;
4048;Laerm;2038;51.728;6.674;2022-11-15T13:57:45;48.31;38.81;61.56;;
4048;Laerm;2038;51.728;6.674;2022-11-15T14:00:39;50.31;38.37;66.59;;
4048;Laerm;2038;51.728;6.674;2022-11-15T14:03:28;47.52;38.81;60.16;;
4048;Laerm;2038;51.728;6.674;2022-11-15T14:06:12;48.74;38.67;70.59;;
4048;Laerm;2038;51.728;6.674;2022-11-15T14:11:56;48.67;38.95;59.11;;
4048;Laerm;2038;51.728;6.674;2022-11-15T14:14:28;46.00;38.52;57.76;;
4048;Laerm;2038;51.728;6.674;2022-11-15T14:17:00;49.54;39.23;63.20;;
4048;Laerm;2038;51.728;6.674;2022-11-15T14:24:35;48.75;39.92;67.63;;
4048;Laerm;2038;51.728;6.674;2022-11-15T14:27:28;48.54;38.37;59.50;;
4048;Laerm;2038;51.728;6.674;2022-11-15T14:29:55;47.52;38.05;59.73;;
4048;Laerm;2038;51.728;6.674;2022-11-15T14:32:24;51.58;38.21;65.53;;
4048;Laerm;2038;51.728;6.674;2022-11-15T14:35:00;52.31;39.46;68.66;;
4048;Laerm;2038;51.728;6.674;2022-11-15T14:37:34;45.31;38.37;55.61;;
4048;Laerm;2038;51.728;6.674;2022-11-15T14:40:03;47.53;39.34;57.47;;
4048;Laerm;2038;51.728;6.674;2022-11-15T14:42:30;49.80;38.95;66.15;;
4048;Laerm;2038;51.728;6.674;2022-11-15T14:44:57;50.22;39.21;64.81;;
4048;Laerm;2038;51.728;6.674;2022-11-15T14:47:23;50.41;40.23;64.42;;
4048;Laerm;2038;51.728;6.674;2022-11-15T14:49:49;48.39;39.08;60.52;;
4048;Laerm;2038;51.728;6.674;2022-11-15T14:52:35;44.63;38.67;54.68;;
4048;Laerm;2038;51.728;6.674;2022-11-15T14:55:16;50.43;39.08;61.51;;
4048;Laerm;2038;51.728;6.674;2022-11-15T14:57:45;49.07;39.58;60.34;;
4048;Laerm;2038;51.728;6.674;2022-11-15T15:00:12;50.17;39.08;63.77;;
4048;Laerm;2038;51.728;6.674;2022-11-15T15:02:41;48.27;38.37;61.68;;
4048;Laerm;2038;51.728;6.674;2022-11-15T15:07:50;50.21;38.95;63.26;;
4048;Laerm;2038;51.728;6.674;2022-11-15T15:10:18;47.73;38.52;62.12;;
4048;Laerm;2038;51.728;6.674;2022-11-15T15:12:48;49.30;38.52;65.58;;
4048;Laerm;2038;51.728;6.674;2022-11-15T15:15:31;50.85;38.05;65.04;;
4048;Laerm;2038;51.728;6.674;2022-11-15T15:17:58;49.29;39.08;60.62;;
4048;Laerm;2038;51.728;6.674;2022-11-15T15:20:24;44.84;38.81;56.08;;
4048;Laerm;2038;51.728;6.674;2022-11-15T15:22:50;47.51;39.08;58.99;;
4048;Laerm;2038;51.728;6.674;2022-11-15T15:25:22;46.91;38.81;57.23;;
4048;Laerm;2038;51.728;6.674;2022-11-15T15:27:49;50.61;39.21;66.90;;
4048;Laerm;2038;51.728;6.674;2022-11-15T15:30:15;46.72;39.08;56.05;;
4048;Laerm;2038;51.728;6.674;2022-11-15T15:32:41;49.71;39.08;62.76;;
4048;Laerm;2038;51.728;6.674;2022-11-15T15:35:14;47.40;39.21;55.91;;
4048;Laerm;2038;51.728;6.674;2022-11-15T15:37:44;48.97;38.60;59.86;;
4048;Laerm;2038;51.728;6.674;2022-11-15T15:40:21;49.47;39.58;61.89;;
4048;Laerm;2038;51.728;6.674;2022-11-15T15:42:49;50.06;38.95;64.47;;
4048;Laerm;2038;51.728;6.674;2022-11-15T15:45:17;48.25;39.34;57.28;;
4048;Laerm;2038;51.728;6.674;2022-11-15T15:47:45;46.98;39.68;57.95;;
4048;Laerm;2038;51.728;6.674;2022-11-15T15:50:25;46.73;38.95;59.75;;
4048;Laerm;2038;51.728;6.674;2022-11-15T15:52:57;49.04;38.74;58.26;;
4048;Laerm;2038;51.728;6.674;2022-11-15T15:55:24;48.22;38.95;57.44;;
4048;Laerm;2038;51.728;6.674;2022-11-15T15:57:53;47.66;37.88;57.46;;
4048;Laerm;2038;51.728;6.674;2022-11-15T16:00:22;46.22;38.37;61.51;;
4048;Laerm;2038;51.728;6.674;2022-11-15T16:02:49;48.18;38.21;70.02;;
4048;Laerm;2038;51.728;6.674;2022-11-15T16:05:16;49.02;39.57;68.36;;
4048;Laerm;2038;51.728;6.674;2022-11-15T16:07:44;47.94;38.67;62.32;;
4048;Laerm;2038;51.728;6.674;2022-11-15T16:10:26;51.40;38.05;65.33;;
4048;Laerm;2038;51.728;6.674;2022-11-15T16:12:54;47.06;38.37;60.43;;
4048;Laerm;2038;51.728;6.674;2022-11-15T16:15:24;48.40;38.67;57.15;;
4048;Laerm;2038;51.728;6.674;2022-11-15T16:17:57;46.84;38.67;62.06;;
4048;Laerm;2038;51.728;6.674;2022-11-15T16:20:35;48.17;38.67;61.10;;